Time;durP1;ratioP1;P1;durP2;ratioP2;P2;SDS_P1;SDS_P2;PMS_P1;PMS_P2;Temp;Humidity;BMP_temperature;BMP_pressure;BME280_temperature;BME280_humidity;BME280_pressure;Samples;Min_cycle;Max_cycle;Signal;HPM_P1;HPM_P2
2023/03/20 00:03:51;;;;;;;6.70;3.20;;;;;;;;;;10558490;27;20039;-78
2023/03/20 00:08:56;;;;;;;6.50;3.17;;;;;;;;;;10559858;27;20462;-77
2023/03/20 00:14:01;;;;;;;3.38;2.10;;;;;;;;;;10572813;27;20039;-76
2023/03/20 00:19:07;;;;;;;4.88;2.67;;;;;;;;;;10582271;27;20377;-77
2023/03/20 00:24:11;;;;;;;4.93;2.70;;;;;;;;;;10575440;27;20138;-77
2023/03/20 00:29:17;;;;;;;2.90;1.92;;;;;;;;;;10575005;28;20043;-77
2023/03/20 00:34:24;;;;;;;6.22;3.00;;;;;;;;;;10573269;27;20035;-77
2023/03/20 00:39:27;;;;;;;4.70;2.50;;;;;;;;;;10572535;27;20043;-78
2023/03/20 00:44:34;;;;;;;4.97;2.80;;;;;;;;;;10560191;27;20408;-78
2023/03/20 00:49:44;;;;;;;2.30;1.63;;;;;;;;;;10559628;28;20055;-78
2023/03/20 00:54:48;;;;;;;2.60;1.83;;;;;;;;;;10561039;28;20035;-79
2023/03/20 00:59:54;;;;;;;3.53;1.52;;;;;;;;;;10552421;28;20516;-78
2023/03/20 01:04:58;;;;;;;6.13;2.78;;;;;;;;;;10554965;28;20046;-78
2023/03/20 01:10:01;;;;;;;3.80;2.13;;;;;;;;;;10560007;28;20446;-79
2023/03/20 01:15:04;;;;;;;3.25;2.03;;;;;;;;;;10553363;28;20036;-79
2023/03/20 01:20:14;;;;;;;6.72;3.03;;;;;;;;;;10559889;28;20070;-79
2023/03/20 01:25:18;;;;;;;4.88;2.47;;;;;;;;;;10555358;28;20071;-79
2023/03/20 01:30:22;;;;;;;4.40;2.47;;;;;;;;;;10560542;28;20035;-79
2023/03/20 01:35:28;;;;;;;3.03;1.60;;;;;;;;;;10554200;28;20183;-79
2023/03/20 01:40:33;;;;;;;2.92;2.13;;;;;;;;;;10560214;28;20039;-79
2023/03/20 01:45:37;;;;;;;4.82;1.95;;;;;;;;;;10555970;28;20511;-79
2023/03/20 01:50:43;;;;;;;4.85;2.08;;;;;;;;;;10569300;28;20051;-79
2023/03/20 01:55:48;;;;;;;3.03;2.10;;;;;;;;;;10557073;28;20122;-78
2023/03/20 02:00:52;;;;;;;4.95;2.53;;;;;;;;;;10559336;27;20520;-78
2023/03/20 02:06:00;;;;;;;3.13;1.45;;;;;;;;;;10569370;27;20028;-78
2023/03/20 02:11:04;;;;;;;1.70;1.05;;;;;;;;;;10566514;27;20059;-78
2023/03/20 02:16:07;;;;;;;3.53;2.00;;;;;;;;;;10565659;27;20043;-79
2023/03/20 02:21:29;;;;;;;3.75;1.80;;;;;;;;;;10562889;27;20048;-79
2023/03/20 02:26:46;;;;;;;1.65;0.90;;;;;;;;;;10516952;27;20059;-80
2023/03/20 02:32:03;;;;;;;1.80;1.27;;;;;;;;;;10560156;27;20541;-79
2023/03/20 02:37:37;;;;;;;2.15;1.40;;;;;;;;;;10561941;27;20032;-78
2023/03/20 02:42:45;;;;;;;3.15;1.77;;;;;;;;;;10552560;27;20083;-79
2023/03/20 02:47:50;;;;;;;3.70;1.75;;;;;;;;;;10558370;27;20422;-80
2023/03/20 02:52:57;;;;;;;2.00;1.33;;;;;;;;;;10554030;27;20032;-79
2023/03/20 02:58:03;;;;;;;1.88;1.40;;;;;;;;;;10561104;27;20035;-78
2023/03/20 03:03:09;;;;;;;2.20;1.40;;;;;;;;;;10561631;27;20036;-80
2023/03/20 03:08:13;;;;;;;4.93;1.50;;;;;;;;;;10545839;27;20046;-80
2023/03/20 03:13:20;;;;;;;1.77;1.33;;;;;;;;;;10564378;27;20122;-78
2023/03/20 03:18:35;;;;;;;1.88;1.38;;;;;;;;;;10562879;27;20423;-79
2023/03/20 03:23:42;;;;;;;2.53;1.20;;;;;;;;;;10566086;27;20581;-81
2023/03/20 03:28:49;;;;;;;1.23;0.82;;;;;;;;;;10558189;27;20035;-79
2023/03/20 03:33:54;;;;;;;2.22;1.17;;;;;;;;;;10554973;27;20125;-77
2023/03/20 03:38:59;;;;;;;2.50;1.45;;;;;;;;;;10558674;27;20050;-77
2023/03/20 03:44:08;;;;;;;2.08;1.45;;;;;;;;;;10568464;27;20100;-78
2023/03/20 03:49:13;;;;;;;2.60;1.70;;;;;;;;;;10557232;27;20055;-78
2023/03/20 03:54:18;;;;;;;3.22;1.38;;;;;;;;;;10548538;28;20059;-78
2023/03/20 03:59:24;;;;;;;2.22;1.60;;;;;;;;;;10559951;27;20043;-78
2023/03/20 04:04:30;;;;;;;1.77;1.10;;;;;;;;;;10561426;27;20127;-79
2023/03/20 04:09:33;;;;;;;1.63;1.35;;;;;;;;;;10555209;27;20127;-79
2023/03/20 04:14:40;;;;;;;3.05;1.50;;;;;;;;;;10567875;27;20039;-78
2023/03/20 04:19:42;;;;;;;1.80;1.30;;;;;;;;;;10561309;27;20043;-78
2023/03/20 04:24:46;;;;;;;1.63;1.10;;;;;;;;;;10558574;27;20084;-77
2023/03/20 04:29:50;;;;;;;5.10;1.75;;;;;;;;;;10558063;27;20040;-78
2023/03/20 04:34:53;;;;;;;3.05;1.60;;;;;;;;;;10562442;27;20035;-79
2023/03/20 04:39:56;;;;;;;2.80;1.63;;;;;;;;;;10557414;28;20032;-79
2023/03/20 04:45:00;;;;;;;1.77;1.40;;;;;;;;;;10560605;27;20035;-79
2023/03/20 04:50:05;;;;;;;2.75;1.83;;;;;;;;;;10559297;28;20046;-79
2023/03/20 04:55:14;;;;;;;2.60;1.20;;;;;;;;;;10565859;27;20040;-78
2023/03/20 05:00:29;;;;;;;2.33;1.58;;;;;;;;;;10540794;28;20101;-77
2023/03/20 05:05:41;;;;;;;2.07;1.50;;;;;;;;;;10557635;28;20036;-78
2023/03/20 05:10:44;;;;;;;4.25;1.88;;;;;;;;;;10544195;28;20043;-77
2023/03/20 05:15:50;;;;;;;5.00;1.98;;;;;;;;;;10556872;28;20077;-77
2023/03/20 05:20:52;;;;;;;3.72;2.38;;;;;;;;;;10561237;28;20044;-77
2023/03/20 05:25:56;;;;;;;3.72;2.17;;;;;;;;;;10564678;27;20028;-76
2023/03/20 05:31:01;;;;;;;3.88;2.47;;;;;;;;;;10574791;27;20528;-79
2023/03/20 05:36:03;;;;;;;;;;;;;;;;;;10579980;27;20622;-78
2023/03/20 05:41:06;;;;;;;2.92;2.20;;;;;;;;;;10575326;27;20729;-77
2023/03/20 05:46:11;;;;;;;3.88;2.17;;;;;;;;;;10576657;27;20123;-78
2023/03/20 05:51:14;;;;;;;5.55;2.67;;;;;;;;;;10579056;27;20505;-76
2023/03/20 05:56:20;;;;;;;6.07;3.28;;;;;;;;;;10572653;27;20092;-78
2023/03/20 06:01:24;;;;;;;7.10;3.45;;;;;;;;;;10574967;27;20120;-78
2023/03/20 06:06:28;;;;;;;4.80;2.72;;;;;;;;;;10577083;27;20089;-78
2023/03/20 06:11:33;;;;;;;5.20;2.45;;;;;;;;;;10579306;27;20040;-79
2023/03/20 06:16:42;;;;;;;9.52;3.85;;;;;;;;;;10559292;27;20456;-76
2023/03/20 06:21:46;;;;;;;3.65;1.73;;;;;;;;;;10570613;27;20035;-79
2023/03/20 06:26:49;;;;;;;6.68;3.03;;;;;;;;;;10561334;27;20036;-79
2023/03/20 06:31:53;;;;;;;8.70;4.25;;;;;;;;;;10561354;27;20496;-79
2023/03/20 06:36:58;;;;;;;4.50;2.65;;;;;;;;;;10548746;27;20077;-78
2023/03/20 06:42:03;;;;;;;7.25;3.63;;;;;;;;;;10559880;27;20477;-79
2023/03/20 06:47:09;;;;;;;5.50;3.50;;;;;;;;;;10558217;27;20035;-79
2023/03/20 06:52:15;;;;;;;9.93;4.93;;;;;;;;;;10561987;27;20089;-79
2023/03/20 06:57:18;;;;;;;8.27;4.32;;;;;;;;;;10564710;27;20054;-79
2023/03/20 07:02:24;;;;;;;8.27;4.68;;;;;;;;;;10560638;27;20059;-79
2023/03/20 07:07:27;;;;;;;8.18;4.43;;;;;;;;;;10564455;27;20047;-78
2023/03/20 07:12:32;;;;;;;10.48;4.47;;;;;;;;;;10554233;27;20043;-78
2023/03/20 07:17:36;;;;;;;10.40;4.95;;;;;;;;;;10558791;27;20057;-79
2023/03/20 07:22:40;;;;;;;8.10;4.45;;;;;;;;;;10560974;27;20123;-78
2023/03/20 07:27:49;;;;;;;8.13;4.50;;;;;;;;;;10563124;27;20032;-78
2023/03/20 07:32:54;;;;;;;11.77;5.10;;;;;;;;;;10566197;27;20408;-78
2023/03/20 07:37:57;;;;;;;6.70;3.75;;;;;;;;;;10558697;27;20043;-78
2023/03/20 07:43:01;;;;;;;9.43;4.70;;;;;;;;;;10558377;27;20100;-78
2023/03/20 07:48:16;;;;;;;7.22;4.22;;;;;;;;;;10554614;27;20043;-78
2023/03/20 07:53:19;;;;;;;7.45;4.20;;;;;;;;;;10561677;27;20063;-79
2023/03/20 07:58:23;;;;;;;6.18;3.88;;;;;;;;;;10553285;27;20477;-78
2023/03/20 08:03:30;;;;;;;8.52;3.88;;;;;;;;;;10560607;27;20081;-79
2023/03/20 08:08:33;;;;;;;8.07;3.90;;;;;;;;;;10562900;27;20035;-79
2023/03/20 08:13:36;;;;;;;5.55;3.25;;;;;;;;;;10555730;28;20032;-79
2023/03/20 08:18:41;;;;;;;7.73;2.97;;;;;;;;;;10560768;27;20105;-81
2023/03/20 08:23:44;;;;;;;3.58;1.92;;;;;;;;;;10556941;27;20293;-78
2023/03/20 08:28:48;;;;;;;3.33;2.35;;;;;;;;;;10552419;27;20032;-78
2023/03/20 08:34:00;;;;;;;5.90;3.20;;;;;;;;;;10556894;27;20110;-78
2023/03/20 08:39:04;;;;;;;3.85;2.88;;;;;;;;;;10540063;27;20088;-78
2023/03/20 08:44:07;;;;;;;3.22;2.33;;;;;;;;;;10553416;27;20142;-78
2023/03/20 08:49:12;;;;;;;5.72;2.90;;;;;;;;;;10552769;28;20040;-80
2023/03/20 08:54:17;;;;;;;4.15;2.30;;;;;;;;;;10561689;27;20039;-80
2023/03/20 08:59:20;;;;;;;4.00;2.30;;;;;;;;;;10554155;28;20051;-79
2023/03/20 09:04:25;;;;;;;7.47;3.00;;;;;;;;;;10551727;28;20122;-80
2023/03/20 09:09:28;;;;;;;4.05;2.67;;;;;;;;;;10562049;28;20044;-80
2023/03/20 09:14:33;;;;;;;3.53;2.28;;;;;;;;;;10556259;28;20123;-79
2023/03/20 09:19:38;;;;;;;3.55;2.35;;;;;;;;;;10556524;28;20203;-77
2023/03/20 09:24:41;;;;;;;5.05;2.72;;;;;;;;;;10557084;28;20032;-79
2023/03/20 09:29:45;;;;;;;4.22;2.80;;;;;;;;;;10557051;28;20119;-79
2023/03/20 09:34:49;;;;;;;3.43;2.50;;;;;;;;;;10558982;28;20040;-78
2023/03/20 09:39:52;;;;;;;3.92;2.88;;;;;;;;;;10556018;28;20048;-79
2023/03/20 09:45:02;;;;;;;5.10;2.47;;;;;;;;;;10556308;28;20088;-79
2023/03/20 09:50:13;;;;;;;5.63;2.28;;;;;;;;;;10558487;28;20042;-78
2023/03/20 09:55:19;;;;;;;2.75;2.08;;;;;;;;;;10561645;28;20055;-78
2023/03/20 10:00:25;;;;;;;5.88;2.50;;;;;;;;;;10550990;28;20039;-79
2023/03/20 10:05:31;;;;;;;2.50;1.88;;;;;;;;;;10560677;28;20035;-79
2023/03/20 10:10:39;;;;;;;3.78;2.10;;;;;;;;;;10556408;28;20173;-78
2023/03/20 10:15:46;;;;;;;2.03;1.77;;;;;;;;;;10563132;27;20039;-78
2023/03/20 10:20:55;;;;;;;2.67;2.08;;;;;;;;;;10559526;27;20488;-79
2023/03/20 10:26:00;;;;;;;2.72;1.98;;;;;;;;;;10563788;27;20059;-79
2023/03/20 10:31:11;;;;;;;3.75;2.10;;;;;;;;;;10563423;27;20204;-79
2023/03/20 10:36:23;;;;;;;4.43;2.20;;;;;;;;;;10566204;27;20607;-78
2023/03/20 10:41:29;;;;;;;4.85;2.20;;;;;;;;;;10568741;27;20428;-77
2023/03/20 10:46:33;;;;;;;2.72;1.70;;;;;;;;;;10572005;27;20039;-78
2023/03/20 10:51:41;;;;;;;3.13;1.83;;;;;;;;;;10562467;27;20171;-77
2023/03/20 10:56:47;;;;;;;2.78;1.77;;;;;;;;;;10576802;27;20061;-77
2023/03/20 11:01:50;;;;;;;3.15;1.70;;;;;;;;;;10573676;27;20097;-80
2023/03/20 11:06:59;;;;;;;1.35;0.68;;;;;;;;;;10572199;27;20069;-78
2023/03/20 11:12:02;;;;;;;3.13;1.95;;;;;;;;;;10570587;27;20074;-78
2023/03/20 11:17:16;;;;;;;1.98;1.80;;;;;;;;;;10565199;27;20043;-77
2023/03/20 11:22:26;;;;;;;1.63;1.40;;;;;;;;;;10567213;27;20039;-78
2023/03/20 11:27:29;;;;;;;;;;;;;;;;;;10555663;27;20365;-78
2023/03/20 11:32:32;;;;;;;;;;;;;;;;;;10565153;27;20359;-78
2023/03/20 11:37:36;;;;;;;;;;;;;;;;;;10563782;27;19992;-78
2023/03/20 11:42:51;;;;;;;1.38;1.00;;;;;;;;;;10555052;27;20356;-79
2023/03/20 11:47:55;;;;;;;2.28;1.42;;;;;;;;;;10561170;27;20063;-78
2023/03/20 11:53:19;;;;;;;2.08;1.27;;;;;;;;;;10558503;27;20230;-78
2023/03/20 11:58:25;;;;;;;1.98;1.05;;;;;;;;;;10554695;27;20131;-78
2023/03/20 12:03:46;;;;;;;1.75;0.90;;;;;;;;;;10557829;27;20047;-79
2023/03/20 12:08:57;;;;;;;1.30;1.20;;;;;;;;;;10558486;27;20109;-79
2023/03/20 12:14:05;;;;;;;1.13;1.02;;;;;;;;;;10534996;27;20036;-79
2023/03/20 12:19:11;;;;;;;1.15;1.05;;;;;;;;;;10555916;27;20408;-79
2023/03/20 12:24:18;;;;;;;1.55;1.35;;;;;;;;;;10562792;27;20118;-78
2023/03/20 12:29:26;;;;;;;2.42;1.35;;;;;;;;;;10560348;27;20457;-78
2023/03/20 12:34:41;;;;;;;2.53;1.05;;;;;;;;;;10560809;27;20039;-78
2023/03/20 12:39:49;;;;;;;1.85;1.30;;;;;;;;;;10561289;27;20067;-79
2023/03/20 12:44:57;;;;;;;1.63;1.30;;;;;;;;;;10560458;27;20458;-78
2023/03/20 12:50:04;;;;;;;2.30;1.52;;;;;;;;;;10558234;27;20049;-78
2023/03/20 12:55:29;;;;;;;2.70;1.60;;;;;;;;;;10555891;28;20253;-78
2023/03/20 13:00:35;;;;;;;1.92;1.15;;;;;;;;;;10556775;28;20055;-78
2023/03/20 13:05:46;;;;;;;1.50;1.20;;;;;;;;;;10556062;28;20047;-78
2023/03/20 13:10:54;;;;;;;1.63;1.10;;;;;;;;;;10559760;28;20042;-79
2023/03/20 13:16:03;;;;;;;1.08;0.93;;;;;;;;;;10559449;28;20046;-79
2023/03/20 13:21:10;;;;;;;1.00;0.70;;;;;;;;;;10557711;28;20125;-79
2023/03/20 13:26:23;;;;;;;1.80;0.95;;;;;;;;;;10554203;28;20032;-79
2023/03/20 13:31:34;;;;;;;1.83;1.23;;;;;;;;;;10550006;28;20060;-79
2023/03/20 13:36:45;;;;;;;2.72;1.50;;;;;;;;;;10551661;28;20040;-78
2023/03/20 13:41:49;;;;;;;2.80;1.27;;;;;;;;;;10559823;28;20035;-78
2023/03/20 13:46:55;;;;;;;1.85;1.20;;;;;;;;;;10555076;27;20391;-78
2023/03/20 13:52:01;;;;;;;1.70;1.27;;;;;;;;;;10570333;28;20032;-79
2023/03/20 13:57:11;;;;;;;1.48;1.38;;;;;;;;;;10570797;28;20514;-79
2023/03/20 14:02:22;;;;;;;1.65;1.20;;;;;;;;;;10563945;27;20657;-79
2023/03/20 14:07:30;;;;;;;1.77;1.63;;;;;;;;;;10541792;27;20047;-79
2023/03/20 14:12:36;;;;;;;3.78;1.48;;;;;;;;;;10558737;27;20047;-79
2023/03/20 14:17:45;;;;;;;2.78;1.30;;;;;;;;;;10558453;27;20032;-79
2023/03/20 14:22:48;;;;;;;1.33;1.13;;;;;;;;;;10568812;27;20039;-79
2023/03/20 14:27:55;;;;;;;2.33;1.40;;;;;;;;;;10565542;27;20277;-79
2023/03/20 14:33:05;;;;;;;2.05;1.23;;;;;;;;;;10562182;27;20047;-79
2023/03/20 14:38:11;;;;;;;3.05;1.45;;;;;;;;;;10556791;27;20068;-79
2023/03/20 14:43:17;;;;;;;2.08;1.30;;;;;;;;;;10561667;27;20449;-79
2023/03/20 14:48:30;;;;;;;1.48;1.30;;;;;;;;;;10570746;27;20039;-79
2023/03/20 14:53:33;;;;;;;4.47;1.70;;;;;;;;;;10563079;27;20396;-79
2023/03/20 14:58:39;;;;;;;;;;;;;;;;;;10562079;27;20024;-79
2023/03/20 15:03:47;;;;;;;4.03;1.50;;;;;;;;;;10568558;27;20356;-79
2023/03/20 15:08:52;;;;;;;3.15;1.30;;;;;;;;;;10556601;27;20397;-80
2023/03/20 15:13:57;;;;;;;1.50;1.27;;;;;;;;;;10566479;27;20074;-80
2023/03/20 15:19:04;;;;;;;1.30;1.20;;;;;;;;;;10567049;27;20066;-79
2023/03/20 15:24:08;;;;;;;3.88;1.30;;;;;;;;;;10564295;27;20047;-79
2023/03/20 15:29:14;;;;;;;2.63;1.27;;;;;;;;;;10562481;27;20035;-79
2023/03/20 15:34:25;;;;;;;2.58;1.10;;;;;;;;;;10566192;27;20051;-78
2023/03/20 15:39:30;;;;;;;1.98;0.93;;;;;;;;;;10564458;27;20127;-79
2023/03/20 15:44:37;;;;;;;1.40;1.00;;;;;;;;;;10564802;27;20049;-80
2023/03/20 15:49:42;;;;;;;1.10;0.90;;;;;;;;;;10560561;27;20036;-78
2023/03/20 15:54:44;;;;;;;1.25;1.00;;;;;;;;;;10567605;27;20046;-81
2023/03/20 15:59:47;;;;;;;2.88;0.98;;;;;;;;;;10566174;27;20131;-78
2023/03/20 16:04:53;;;;;;;1.15;1.05;;;;;;;;;;10575142;27;20051;-79
2023/03/20 16:09:56;;;;;;;3.97;1.00;;;;;;;;;;10562384;28;20052;-77
2023/03/20 16:14:59;;;;;;;0.95;0.82;;;;;;;;;;10565152;27;20057;-79
2023/03/20 16:20:05;;;;;;;1.92;1.00;;;;;;;;;;10572177;27;20038;-78
2023/03/20 16:25:12;;;;;;;4.80;1.25;;;;;;;;;;10577811;27;20082;-77
2023/03/20 16:30:25;;;;;;;2.05;1.30;;;;;;;;;;10560648;27;20036;-79
2023/03/20 16:35:32;;;;;;;4.00;1.20;;;;;;;;;;10568509;27;20134;-79
2023/03/20 16:40:36;;;;;;;2.33;1.10;;;;;;;;;;10562652;27;20588;-79
2023/03/20 16:45:41;;;;;;;2.55;1.33;;;;;;;;;;10563273;27;20040;-78
2023/03/20 16:50:51;;;;;;;1.33;1.10;;;;;;;;;;10558018;27;20040;-79
2023/03/20 16:55:56;;;;;;;10.07;3.55;;;;;;;;;;10556123;27;20039;-80
2023/03/20 17:01:01;;;;;;;2.47;1.30;;;;;;;;;;10557047;27;20840;-78
2023/03/20 17:06:09;;;;;;;3.45;1.40;;;;;;;;;;10563757;28;20081;-76
2023/03/20 17:11:16;;;;;;;3.88;1.45;;;;;;;;;;10560660;28;20035;-79
2023/03/20 17:16:20;;;;;;;4.25;1.60;;;;;;;;;;10550915;28;20130;-79
2023/03/20 17:21:29;;;;;;;4.05;1.40;;;;;;;;;;10562570;27;20035;-78
2023/03/20 17:26:32;;;;;;;6.13;1.88;;;;;;;;;;10564375;27;20040;-78
2023/03/20 17:31:36;;;;;;;2.80;1.30;;;;;;;;;;10570387;27;20045;-78
2023/03/20 17:36:40;;;;;;;4.93;1.70;;;;;;;;;;10568269;27;20390;-78
2023/03/20 17:41:44;;;;;;;3.28;1.50;;;;;;;;;;10557280;27;20032;-78
2023/03/20 17:46:48;;;;;;;2.15;1.40;;;;;;;;;;10570290;27;20035;-76
2023/03/20 17:52:01;;;;;;;4.30;1.60;;;;;;;;;;10546209;27;20132;-79
2023/03/20 17:57:05;;;;;;;4.65;1.58;;;;;;;;;;10573685;27;20062;-77
2023/03/20 18:02:11;;;;;;;3.25;1.80;;;;;;;;;;10559224;27;20044;-77
2023/03/20 18:07:16;;;;;;;3.65;1.42;;;;;;;;;;10571115;27;20028;-78
2023/03/20 18:12:20;;;;;;;4.20;1.83;;;;;;;;;;10567976;27;20074;-79
2023/03/20 18:17:23;;;;;;;7.68;2.20;;;;;;;;;;10569674;27;20036;-79
2023/03/20 18:22:28;;;;;;;4.63;2.10;;;;;;;;;;10570659;27;20035;-77
2023/03/20 18:27:31;;;;;;;;;;;;;;;;;;10560288;27;20499;-79
2023/03/20 18:32:35;;;;;;;4.85;2.40;;;;;;;;;;10562698;27;20049;-79
2023/03/20 18:37:40;;;;;;;8.10;2.53;;;;;;;;;;10570095;27;20073;-78
2023/03/20 18:42:43;;;;;;;4.85;2.13;;;;;;;;;;10567583;27;20055;-78
2023/03/20 18:47:45;;;;;;;6.05;2.22;;;;;;;;;;10564797;27;20036;-80
2023/03/20 18:52:52;;;;;;;5.25;2.55;;;;;;;;;;10563274;27;20136;-80
2023/03/20 18:57:55;;;;;;;6.03;2.58;;;;;;;;;;10557962;27;20122;-78
2023/03/20 19:02:58;;;;;;;5.78;2.38;;;;;;;;;;10561667;27;20112;-80
2023/03/20 19:08:04;;;;;;;7.55;3.13;;;;;;;;;;10553200;27;20100;-77
2023/03/20 19:13:07;;;;;;;8.63;2.83;;;;;;;;;;10560277;27;20047;-80
2023/03/20 19:18:14;;;;;;;5.15;2.35;;;;;;;;;;10559341;27;20139;-82
2023/03/20 19:23:19;;;;;;;5.07;2.60;;;;;;;;;;10564530;27;20133;-79
2023/03/20 19:28:23;;;;;;;6.55;2.90;;;;;;;;;;10559064;28;20038;-78
2023/03/20 19:33:41;;;;;;;6.60;2.90;;;;;;;;;;10551500;28;20185;-78
2023/03/20 19:38:47;;;;;;;5.97;2.90;;;;;;;;;;10558431;28;20047;-78
2023/03/20 19:43:51;;;;;;;5.65;2.83;;;;;;;;;;10556149;28;20051;-78
2023/03/20 19:48:57;;;;;;;6.80;3.00;;;;;;;;;;10555592;28;20164;-78
2023/03/20 19:54:02;;;;;;;6.35;2.85;;;;;;;;;;10553669;28;20081;-78
2023/03/20 19:59:05;;;;;;;9.07;3.20;;;;;;;;;;10563448;28;20038;-78
2023/03/20 20:04:09;;;;;;;9.95;2.92;;;;;;;;;;10560912;28;20047;-78
2023/03/20 20:09:14;;;;;;;4.93;2.57;;;;;;;;;;10559243;28;20445;-78
2023/03/20 20:14:27;;;;;;;4.65;2.78;;;;;;;;;;10561896;28;20396;-77
2023/03/20 20:19:30;;;;;;;6.73;2.57;;;;;;;;;;10555930;28;20202;-79
2023/03/20 20:24:35;;;;;;;6.55;2.70;;;;;;;;;;10566149;28;20088;-78
2023/03/20 20:29:39;;;;;;;5.00;2.67;;;;;;;;;;10553450;28;20066;-80
2023/03/20 20:34:43;;;;;;;5.75;2.85;;;;;;;;;;10559618;28;20040;-79
2023/03/20 20:40:10;;;;;;;3.63;1.93;;;;;;;;;;10564744;28;20035;-78
2023/03/20 20:45:14;;;;;;;4.20;2.03;;;;;;;;;;10561329;28;20039;-78
2023/03/20 20:50:18;;;;;;;5.65;2.13;;;;;;;;;;10572985;27;20043;-79
2023/03/20 20:55:25;;;;;;;5.35;2.58;;;;;;;;;;10557900;28;20051;-78
2023/03/20 21:00:30;;;;;;;2.47;1.38;;;;;;;;;;10568534;28;20070;-80
2023/03/20 21:05:52;;;;;;;5.30;2.55;;;;;;;;;;10564063;28;20470;-81
2023/03/20 21:10:57;;;;;;;5.00;1.93;;;;;;;;;;10562648;28;20589;-77
2023/03/20 21:16:00;;;;;;;3.75;2.28;;;;;;;;;;10560642;28;20075;-78
2023/03/20 21:21:06;;;;;;;2.28;1.40;;;;;;;;;;10546355;28;20557;-77
2023/03/20 21:26:12;;;;;;;2.67;1.50;;;;;;;;;;10557589;28;20040;-76
2023/03/20 21:31:23;;;;;;;4.22;2.35;;;;;;;;;;10559759;28;20035;-77
2023/03/20 21:36:32;;;;;;;3.22;1.63;;;;;;;;;;10562334;28;20250;-76
2023/03/20 21:41:39;;;;;;;5.25;2.95;;;;;;;;;;10577606;28;20241;-77
2023/03/20 21:46:42;;;;;;;6.43;2.88;;;;;;;;;;10575202;28;20047;-77
2023/03/20 21:52:06;;;;;;;4.72;2.42;;;;;;;;;;10559463;28;20119;-78
2023/03/20 21:57:31;;;;;;;5.22;2.90;;;;;;;;;;10566553;28;20040;-78
2023/03/20 22:02:54;;;;;;;2.40;1.05;;;;;;;;;;10558774;28;20141;-78
2023/03/20 22:08:08;;;;;;;;;;;;;;;;;;10562001;27;20415;-80
2023/03/20 22:13:32;;;;;;;2.38;1.90;;;;;;;;;;10572796;27;20321;-79
2023/03/20 22:18:55;;;;;;;5.90;2.85;;;;;;;;;;10564424;27;20123;-80
2023/03/20 22:24:19;;;;;;;4.75;2.08;;;;;;;;;;10551789;27;20048;-79
2023/03/20 22:29:44;;;;;;;3.60;1.93;;;;;;;;;;10554040;27;20108;-80
2023/03/20 22:35:07;;;;;;;3.70;1.80;;;;;;;;;;10559967;27;20396;-80
2023/03/20 22:40:30;;;;;;;3.38;1.00;;;;;;;;;;10565819;27;20043;-79
2023/03/20 22:45:54;;;;;;;3.67;1.98;;;;;;;;;;10561142;27;20484;-78
2023/03/20 22:51:18;;;;;;;5.10;2.05;;;;;;;;;;10562917;27;20040;-80
2023/03/20 22:56:30;;;;;;;3.15;1.42;;;;;;;;;;10566946;27;20061;-80
2023/03/20 23:01:35;;;;;;;5.75;2.15;;;;;;;;;;10558172;27;20039;-78
2023/03/20 23:06:37;;;;;;;5.28;2.05;;;;;;;;;;10558234;27;20055;-79
2023/03/20 23:11:41;;;;;;;3.70;1.60;;;;;;;;;;10562355;27;20040;-77
2023/03/20 23:16:45;;;;;;;;;;;;;;;;;;10558194;27;20287;-77
2023/03/20 23:21:49;;;;;;;1.77;1.40;;;;;;;;;;10557090;27;19983;-75
2023/03/20 23:26:53;;;;;;;;;;;;;;;;;;10567973;27;20046;-76
2023/03/20 23:31:56;;;;;;;;;;;;;;;;;;10568592;27;19923;-79
2023/03/20 23:37:00;;;;;;;3.55;0.95;;;;;;;;;;10564860;27;19932;-78
2023/03/20 23:42:07;;;;;;;2.30;1.50;;;;;;;;;;10562204;27;20420;-78
2023/03/20 23:47:30;;;;;;;1.85;1.42;;;;;;;;;;10554712;27;20062;-77
2023/03/20 23:52:47;;;;;;;4.20;1.80;;;;;;;;;;10551830;27;20023;-77
2023/03/20 23:58:03;;;;;;;3.58;1.77;;;;;;;;;;10557339;27;20036;-79
